Time;durP1;ratioP1;P1;durP2;ratioP2;P2;SDS_P1;SDS_P2;PMS_P1;PMS_P2;Temp;Humidity;BMP_temperature;BMP_pressure;BME280_temperature;BME280_humidity;BME280_pressure;Samples;Min_cycle;Max_cycle;Signal;HPM_P1;HPM_P2
2021/03/28 00:00:18;;;;;;;27.35;14.18;;;;;;;19.20;55.14;100665.00;5007256;28;20045;-62
2021/03/28 00:02:50;;;;;;;27.75;13.50;;;;;;;19.23;55.02;100671.75;5029367;28;20047;-62
2021/03/28 00:05:22;;;;;;;24.70;12.85;;;;;;;19.23;54.86;100661.13;5029491;28;20429;-62
2021/03/28 00:07:51;;;;;;;24.33;12.23;;;;;;;19.26;54.86;100647.44;5031019;28;20021;-61
2021/03/28 00:10:33;;;;;;;21.10;11.18;;;;;;;19.24;55.20;100652.94;5030593;28;20113;-61
2021/03/28 00:13:03;;;;;;;24.05;11.10;;;;;;;19.28;54.67;100653.38;5028841;28;20829;-62
2021/03/28 00:15:35;;;;;;;22.67;11.23;;;;;;;19.28;54.80;100640.09;5030925;28;20115;-62
2021/03/28 00:18:24;;;;;;;22.58;11.52;;;;;;;19.27;55.01;100636.59;5029633;28;20289;-62
2021/03/28 00:21:06;;;;;;;19.58;9.88;;;;;;;19.29;54.57;100645.19;5030165;28;20175;-62
2021/03/28 00:23:38;;;;;;;16.95;9.55;;;;;;;19.31;54.64;100639.69;5031850;28;20475;-61
2021/03/28 00:26:28;;;;;;;17.88;9.32;;;;;;;19.28;54.75;100638.25;5029525;28;20033;-61
2021/03/28 00:29:11;;;;;;;15.35;8.35;;;;;;;19.29;54.50;100645.19;5011880;28;20037;-62
2021/03/28 00:31:52;;;;;;;17.10;8.60;;;;;;;19.31;54.59;100635.19;5030181;28;20041;-61
2021/03/28 00:34:18;;;;;;;17.17;8.32;;;;;;;19.32;54.73;100641.31;5030754;28;20044;-62
2021/03/28 00:36:47;;;;;;;19.35;8.73;;;;;;;19.32;54.47;100647.47;5028316;28;20037;-62
2021/03/28 00:39:37;;;;;;;21.92;7.78;;;;;;;19.32;54.66;100644.81;5029558;28;20543;-62
2021/03/28 00:42:13;;;;;;;13.55;6.95;;;;;;;19.32;54.66;100651.97;5023033;28;20049;-62
2021/03/28 00:45:10;;;;;;;12.65;7.28;;;;;;;19.29;54.20;100647.03;5029755;28;20061;-64
2021/03/28 00:47:37;;;;;;;13.48;6.72;;;;;;;19.32;54.55;100651.97;5027786;28;20041;-61
2021/03/28 00:50:09;;;;;;;13.88;6.80;;;;;;;19.30;54.35;100646.03;5030857;28;20053;-61
2021/03/28 00:52:41;;;;;;;13.82;6.50;;;;;;;19.32;54.11;100657.28;5011185;28;20500;-61
2021/03/28 00:55:41;;;;;;;12.20;5.78;;;;;;;19.29;53.97;100652.38;5018162;28;20049;-61
2021/03/28 00:58:09;;;;;;;10.07;5.70;;;;;;;19.29;54.19;100669.13;5025821;28;20069;-62
2021/03/28 01:00:58;;;;;;;12.18;6.40;;;;;;;19.28;54.02;100646.22;5024514;28;20049;-62
2021/03/28 01:04:09;;;;;;;9.93;5.25;;;;;;;19.26;54.04;100647.44;5020759;28;20029;-61
2021/03/28 01:06:40;;;;;;;12.15;5.50;;;;;;;19.27;53.90;100641.09;4963146;28;20496;-62
2021/03/28 01:09:15;;;;;;;9.68;5.07;;;;;;;19.26;54.14;100642.94;5029545;28;20041;-62
2021/03/28 01:11:49;;;;;;;10.27;5.10;;;;;;;19.25;53.91;100636.00;5029881;28;20100;-65
2021/03/28 01:14:38;;;;;;;8.82;4.60;;;;;;;19.25;53.87;100632.47;5030210;28;20052;-62
2021/03/28 01:17:30;;;;;;;6.82;4.18;;;;;;;19.21;54.15;100624.09;4998425;28;20049;-62
2021/03/28 01:20:11;;;;;;;9.23;5.03;;;;;;;19.21;53.99;100624.09;5028753;28;20553;-62
2021/03/28 01:23:10;;;;;;;10.10;4.57;;;;;;;19.19;53.71;100610.16;5029254;28;20069;-61
2021/03/28 01:25:48;;;;;;;6.90;3.80;;;;;;;19.18;53.51;100613.84;5017297;28;20056;-62
2021/03/28 01:28:39;;;;;;;7.95;3.85;;;;;;;19.18;53.94;100599.75;5029395;28;20049;-61
2021/03/28 01:31:15;;;;;;;8.35;3.95;;;;;;;19.17;53.73;100608.72;5019620;28;20057;-61
2021/03/28 01:33:47;;;;;;;7.85;4.25;;;;;;;19.17;53.82;100601.56;5027451;28;20092;-61
2021/03/28 01:36:23;;;;;;;7.72;3.75;;;;;;;19.15;53.96;100601.78;5029309;28;20028;-61
2021/03/28 01:39:15;;;;;;;8.27;3.75;;;;;;;19.13;53.78;100595.84;5026436;28;20091;-62
2021/03/28 01:41:48;;;;;;;6.85;3.63;;;;;;;19.14;54.00;100586.03;5030669;28;20041;-61
2021/03/28 01:44:40;;;;;;;8.18;3.85;;;;;;;19.12;53.78;100594.19;4994751;28;20396;-61
2021/03/28 01:47:47;;;;;;;8.07;3.42;;;;;;;19.10;53.88;100592.78;5017319;28;20073;-62
2021/03/28 01:50:29;;;;;;;8.32;3.70;;;;;;;19.08;53.87;100587.63;5006478;28;20041;-61
2021/03/28 01:53:51;;;;;;;6.97;3.47;;;;;;;19.07;53.47;100596.63;4999556;28;20145;-62
2021/03/28 01:56:35;;;;;;;6.72;3.08;;;;;;;19.07;53.52;100601.13;4979344;28;20167;-62
2021/03/28 01:59:33;;;;;;;7.03;3.03;;;;;;;19.04;53.69;100589.03;4956072;28;20085;-61
2021/03/28 02:02:35;;;;;;;5.47;2.90;;;;;;;19.03;53.51;100606.00;4986701;28;20053;-63
2021/03/28 02:05:19;;;;;;;6.78;3.08;;;;;;;19.01;53.65;100597.41;5024612;28;20104;-63
2021/03/28 02:08:12;;;;;;;5.75;2.97;;;;;;;19.01;53.64;100593.94;5028637;28;20384;-61
2021/03/28 02:10:40;;;;;;;5.22;2.30;;;;;;;19.01;53.65;100608.06;5015808;28;20052;-61
2021/03/28 02:13:12;;;;;;;5.90;2.65;;;;;;;18.99;53.50;100610.09;5027979;28;20029;-61
2021/03/28 02:15:43;;;;;;;7.20;2.90;;;;;;;18.98;53.39;100613.78;5028120;28;20026;-61
2021/03/28 02:18:44;;;;;;;5.00;2.58;;;;;;;18.97;53.50;100595.38;5025455;28;20029;-62
2021/03/28 02:21:13;;;;;;;5.53;2.50;;;;;;;18.97;53.59;100606.00;5002680;28;20064;-65
2021/03/28 02:23:45;;;;;;;6.82;2.72;;;;;;;18.97;53.33;100606.00;5014870;28;20063;-61
2021/03/28 02:26:31;;;;;;;5.63;2.72;;;;;;;18.94;53.27;100606.41;5011724;28;20406;-61
2021/03/28 02:29:06;;;;;;;6.13;2.47;;;;;;;18.94;53.28;100612.53;5017080;28;20030;-62
2021/03/28 02:31:45;;;;;;;;;;;;;;;18.89;53.48;100609.63;5028282;28;20025;-62
2021/03/28 02:34:52;;;;;;;6.15;2.65;;;;;;;18.90;53.24;100605.94;5026379;28;20011;-61
2021/03/28 02:37:34;;;;;;;4.95;2.30;;;;;;;18.90;53.47;100602.47;5004758;28;20037;-62
2021/03/28 02:40:10;;;;;;;4.97;2.33;;;;;;;18.89;53.34;100593.69;5026587;28;20041;-62
2021/03/28 02:42:53;;;;;;;4.55;2.33;;;;;;;18.88;53.44;100593.88;5028935;28;20075;-62
2021/03/28 02:45:29;;;;;;;4.63;2.25;;;;;;;18.87;53.40;100590.41;5028042;28;20468;-61
2021/03/28 02:48:20;;;;;;;5.68;1.77;;;;;;;18.84;53.46;100607.56;5016583;28;20041;-61
2021/03/28 02:51:23;;;;;;;5.53;2.15;;;;;;;18.83;53.65;100595.28;5009573;28;20113;-61
2021/03/28 02:54:07;;;;;;;4.70;1.83;;;;;;;18.83;53.58;100594.47;5024918;28;20095;-62
2021/03/28 02:56:32;;;;;;;4.03;2.03;;;;;;;18.83;53.44;100591.81;5023813;28;20107;-61
2021/03/28 02:59:07;;;;;;;4.93;1.95;;;;;;;18.80;53.50;100600.19;5010342;28;20480;-61
2021/03/28 03:01:38;;;;;;;6.45;1.95;;;;;;;18.79;53.58;100601.22;5008997;28;20033;-62
2021/03/28 03:04:13;;;;;;;5.65;1.70;;;;;;;18.80;53.54;100605.50;5026556;28;20491;-61
2021/03/28 03:07:23;;;;;;;4.35;1.70;;;;;;;18.76;53.66;100604.22;5027012;28;20029;-61
2021/03/28 03:10:07;;;;;;;3.85;1.83;;;;;;;18.76;53.64;100593.59;5012216;28;20099;-61
2021/03/28 03:12:53;;;;;;;6.22;1.92;;;;;;;18.76;53.80;100604.22;5027932;28;20594;-61
2021/03/28 03:15:48;;;;;;;4.10;1.75;;;;;;;18.73;53.82;100608.09;5025359;28;20041;-62
2021/03/28 03:18:23;;;;;;;3.63;1.70;;;;;;;18.76;53.47;100612.22;5025733;28;20191;-61
2021/03/28 03:21:06;;;;;;;4.40;1.77;;;;;;;18.73;53.88;100604.63;5026557;28;20033;-62
2021/03/28 03:24:07;;;;;;;4.75;1.92;;;;;;;18.72;53.31;100610.97;5026883;28;20029;-61
2021/03/28 03:26:39;;;;;;;4.63;1.67;;;;;;;18.72;53.39;100603.81;5025591;28;20056;-61
2021/03/28 03:29:21;;;;;;;5.00;2.00;;;;;;;18.73;53.54;100626.72;5027206;28;20120;-62
2021/03/28 03:32:24;;;;;;;7.10;2.13;;;;;;;18.70;53.48;100627.09;5008261;28;20060;-62
2021/03/28 03:35:29;;;;;;;4.70;1.90;;;;;;;18.69;53.45;100627.31;5025645;28;20060;-61
2021/03/28 03:38:08;;;;;;;4.70;2.22;;;;;;;18.70;53.48;100623.63;4998928;28;20045;-61
2021/03/28 03:41:11;;;;;;;5.70;1.90;;;;;;;18.69;53.82;100637.94;5026140;28;20033;-61
2021/03/28 03:43:46;;;;;;;5.38;1.75;;;;;;;18.69;53.58;100629.97;5026519;28;20065;-61
2021/03/28 03:46:18;;;;;;;8.25;2.53;;;;;;;18.68;53.44;100641.59;5020599;28;20139;-61
2021/03/28 03:49:02;;;;;;;6.70;1.83;;;;;;;18.65;53.29;100639.34;5026175;28;20099;-66
2021/03/28 03:51:45;;;;;;;7.47;2.58;;;;;;;18.67;53.63;100647.94;5017108;28;20030;-61
2021/03/28 03:54:20;;;;;;;5.10;1.70;;;;;;;18.65;53.81;100652.63;5026447;28;20053;-61
2021/03/28 03:57:25;;;;;;;5.63;1.92;;;;;;;18.64;53.86;100651.81;5026194;28;20123;-62
2021/03/28 04:00:03;;;;;;;4.35;1.70;;;;;;;18.65;53.72;100652.63;4994659;28;20034;-62
2021/03/28 04:02:44;;;;;;;5.60;1.77;;;;;;;18.62;53.40;100653.81;5017769;28;20128;-62
2021/03/28 04:05:44;;;;;;;6.13;2.03;;;;;;;18.62;53.54;100660.94;5012661;28;20026;-62
2021/03/28 04:08:22;;;;;;;4.18;1.45;;;;;;;18.62;53.59;100656.47;4972481;28;20050;-61
2021/03/28 04:11:05;;;;;;;5.25;2.10;;;;;;;18.61;53.82;100665.44;5026043;28;20029;-61
2021/03/28 04:14:04;;;;;;;6.10;2.17;;;;;;;18.60;53.43;100655.00;5009124;28;20057;-61
2021/03/28 04:17:01;;;;;;;6.55;1.70;;;;;;;18.61;53.55;100677.88;5023489;28;20052;-62
2021/03/28 04:19:40;;;;;;;3.70;1.70;;;;;;;18.60;53.67;100674.41;5016587;28;20045;-61
2021/03/28 04:22:42;;;;;;;6.72;1.92;;;;;;;18.58;53.78;100675.63;5025136;28;20774;-61
2021/03/28 04:25:34;;;;;;;5.53;1.75;;;;;;;18.58;53.50;100681.75;5022819;28;20473;-61
2021/03/28 04:28:11;;;;;;;6.50;1.83;;;;;;;18.59;53.63;100674.59;5015735;28;20044;-61
2021/03/28 04:30:55;;;;;;;5.65;1.90;;;;;;;18.58;53.51;100670.31;5027157;28;20388;-61
2021/03/28 04:33:39;;;;;;;6.55;1.80;;;;;;;18.59;53.46;100677.25;5024130;28;20107;-61
2021/03/28 04:36:18;;;;;;;7.32;2.08;;;;;;;18.56;53.68;100671.31;5026135;28;20126;-61
2021/03/28 04:38:55;;;;;;;4.18;1.42;;;;;;;18.58;53.54;100680.94;5027028;28;20052;-65
2021/03/28 04:41:27;;;;;;;8.10;2.20;;;;;;;18.55;53.63;100682.97;5029358;28;20031;-61
2021/03/28 04:44:28;;;;;;;6.10;1.85;;;;;;;18.54;53.75;100685.81;5029794;28;20037;-61
2021/03/28 04:47:11;;;;;;;3.85;1.70;;;;;;;18.54;53.62;100681.31;5022445;28;20088;-63
2021/03/28 04:49:46;;;;;;;6.65;1.88;;;;;;;18.54;53.25;100691.94;5027926;28;20064;-62
2021/03/28 04:52:44;;;;;;;5.78;2.03;;;;;;;18.51;53.80;100687.03;5023272;28;20049;-63
2021/03/28 04:55:29;;;;;;;6.30;2.17;;;;;;;18.51;53.34;100705.63;5016117;28;20037;-61
2021/03/28 04:58:04;;;;;;;5.70;1.88;;;;;;;18.51;53.50;100700.31;5030031;28;20351;-61
2021/03/28 05:00:57;;;;;;;7.95;2.53;;;;;;;18.50;53.53;100700.50;5030350;28;20739;-62
2021/03/28 05:03:25;;;;;;;8.13;2.20;;;;;;;18.52;53.60;100695.81;5027813;28;20120;-61
2021/03/28 05:05:59;;;;;;;6.80;1.73;;;;;;;18.53;53.33;100700.13;5030632;28;20025;-61
2021/03/28 05:08:25;;;;;;;7.45;1.85;;;;;;;18.51;53.73;100696.84;5011032;28;20361;-62
2021/03/28 05:10:50;;;;;;;7.90;2.33;;;;;;;18.50;53.45;100701.34;5030574;28;20091;-61
2021/03/28 05:13:43;;;;;;;6.68;2.13;;;;;;;18.48;53.87;100698.03;5028255;28;20025;-61
2021/03/28 05:16:42;;;;;;;4.68;1.67;;;;;;;18.48;53.84;100698.03;5024186;28;20030;-62
2021/03/28 05:19:35;;;;;;;6.65;1.95;;;;;;;18.47;53.32;100700.91;5028694;28;20131;-62
2021/03/28 05:22:09;;;;;;;5.68;2.17;;;;;;;18.48;53.58;100698.03;4995717;28;20041;-62
2021/03/28 05:24:53;;;;;;;8.88;1.85;;;;;;;18.45;53.55;100698.41;5024103;28;20048;-65
2021/03/28 05:27:45;;;;;;;6.88;1.77;;;;;;;18.45;53.53;100698.41;5029109;28;20055;-61
2021/03/28 05:30:42;;;;;;;7.68;2.13;;;;;;;18.45;53.60;100702.91;5029170;28;20147;-61
2021/03/28 05:33:32;;;;;;;6.70;1.90;;;;;;;18.45;53.53;100702.91;5027920;28;20091;-62
2021/03/28 05:36:31;;;;;;;6.70;2.25;;;;;;;18.44;53.67;100701.25;5017371;28;20032;-62
2021/03/28 05:39:18;;;;;;;4.82;1.83;;;;;;;18.44;53.95;100702.06;5028257;28;20025;-61
2021/03/28 05:42:16;;;;;;;7.65;2.03;;;;;;;18.43;53.97;100716.38;5030343;28;20044;-64
2021/03/28 05:45:00;;;;;;;7.32;2.00;;;;;;;18.44;53.83;100709.22;5017871;28;20060;-61
2021/03/28 05:47:53;;;;;;;5.03;1.52;;;;;;;18.44;53.77;100722.50;5026654;28;20045;-61
2021/03/28 05:50:58;;;;;;;6.97;2.22;;;;;;;18.45;53.85;100724.16;5028288;28;20033;-62
2021/03/28 05:53:29;;;;;;;6.07;2.20;;;;;;;18.50;53.74;100722.59;5021612;28;20106;-61
2021/03/28 05:56:39;;;;;;;6.15;2.08;;;;;;;18.47;53.82;100727.47;5017683;28;20050;-61
2021/03/28 05:59:16;;;;;;;7.00;2.15;;;;;;;18.50;54.15;100743.00;5019348;28;20092;-62
2021/03/28 06:02:08;;;;;;;5.03;1.52;;;;;;;18.52;53.96;100733.00;5029128;28;20033;-61
2021/03/28 06:04:58;;;;;;;5.50;1.90;;;;;;;18.54;54.05;100745.09;5028997;28;20083;-62
2021/03/28 06:07:42;;;;;;;5.35;1.55;;;;;;;18.55;54.10;100751.22;5013206;28;20036;-62
2021/03/28 06:10:57;;;;;;;5.70;1.73;;;;;;;18.58;54.10;100752.66;5027170;28;20025;-62
2021/03/28 06:13:44;;;;;;;5.45;1.65;;;;;;;18.60;53.67;100761.25;5019904;28;20037;-60
2021/03/28 06:16:17;;;;;;;6.35;1.98;;;;;;;18.63;54.02;100763.56;5028936;28;20033;-60
2021/03/28 06:19:04;;;;;;;4.97;1.80;;;;;;;18.66;54.09;100769.34;5009741;28;20057;-59
2021/03/28 06:21:48;;;;;;;6.60;1.83;;;;;;;18.67;53.95;100778.13;5024937;28;20117;-60
2021/03/28 06:24:41;;;;;;;7.68;2.05;;;;;;;18.69;54.25;100776.91;5029598;28;20029;-60
2021/03/28 06:27:18;;;;;;;5.43;1.83;;;;;;;18.71;54.02;100768.75;5010748;28;20400;-60
2021/03/28 06:30:05;;;;;;;5.80;2.20;;;;;;;18.74;54.10;100777.16;5027687;28;20037;-64
2021/03/28 06:33:05;;;;;;;7.07;1.90;;;;;;;18.74;54.29;100784.31;5026941;28;20064;-60
2021/03/28 06:35:31;;;;;;;6.20;2.00;;;;;;;18.79;53.82;100787.22;4960785;28;20042;-60
2021/03/28 06:38:22;;;;;;;6.20;1.90;;;;;;;18.76;54.18;100791.06;5002122;28;20041;-61
2021/03/28 06:41:12;;;;;;;6.93;2.13;;;;;;;18.79;53.84;100792.56;5020662;28;20396;-60
2021/03/28 06:44:15;;;;;;;7.10;2.13;;;;;;;18.81;54.24;100798.50;5010162;28;20033;-60
2021/03/28 06:46:52;;;;;;;6.60;1.90;;;;;;;18.83;53.69;100791.97;5023497;28;20494;-59
2021/03/28 06:50:02;;;;;;;8.07;2.38;;;;;;;18.83;54.13;100807.09;5027458;28;20021;-60
2021/03/28 06:52:54;;;;;;;5.43;1.80;;;;;;;18.85;53.80;100805.06;5008880;28;20048;-60
2021/03/28 06:55:34;;;;;;;6.75;2.08;;;;;;;18.84;53.89;100804.25;5012056;28;20033;-60
2021/03/28 06:58:24;;;;;;;8.50;2.00;;;;;;;18.85;54.00;100800.56;5023403;28;20038;-60
2021/03/28 07:01:31;;;;;;;7.20;2.08;;;;;;;18.85;53.75;100802.41;5027678;28;20025;-60
2021/03/28 07:04:24;;;;;;;3.95;1.60;;;;;;;18.84;53.99;100803.41;5015453;28;20527;-60
2021/03/28 07:06:56;;;;;;;8.40;1.92;;;;;;;18.85;53.87;100819.16;5027236;28;20033;-62
2021/03/28 07:09:47;;;;;;;8.30;2.30;;;;;;;18.84;53.64;100811.38;5005907;28;20040;-61
2021/03/28 07:12:47;;;;;;;6.22;1.95;;;;;;;18.84;54.16;100811.38;5024833;28;20036;-61
2021/03/28 07:15:51;;;;;;;8.43;2.08;;;;;;;18.84;54.24;100820.19;5019545;28;20029;-61
2021/03/28 07:18:54;;;;;;;7.07;1.88;;;;;;;18.84;54.38;100814.06;5019076;28;20049;-61
2021/03/28 07:21:53;;;;;;;6.32;1.85;;;;;;;18.85;54.65;100823.66;5023238;28;20025;-61
2021/03/28 07:24:46;;;;;;;6.18;1.55;;;;;;;18.84;54.63;100843.28;5005592;28;20045;-61
2021/03/28 07:27:38;;;;;;;6.13;1.92;;;;;;;18.85;54.95;100831.63;5020366;28;20120;-61
2021/03/28 07:30:34;;;;;;;6.13;1.75;;;;;;;18.85;55.31;100837.78;5022520;28;20041;-63
2021/03/28 07:33:33;;;;;;;10.48;2.80;;;;;;;18.85;55.74;100844.94;5021188;28;20132;-61
2021/03/28 07:36:36;;;;;;;6.13;1.95;;;;;;;18.85;56.41;100852.91;5021639;28;20049;-61
2021/03/28 07:39:23;;;;;;;10.05;1.77;;;;;;;18.86;56.38;100857.19;5022579;28;20072;-61
2021/03/28 07:42:07;;;;;;;9.38;2.22;;;;;;;18.88;56.18;100857.00;5020811;28;20017;-61
2021/03/28 07:45:09;;;;;;;8.90;1.70;;;;;;;18.85;56.84;100864.34;5022468;28;20032;-62
2021/03/28 07:48:10;;;;;;;6.10;1.75;;;;;;;18.88;56.69;100873.78;5005833;28;20045;-61
2021/03/28 07:50:56;;;;;;;8.38;2.40;;;;;;;18.85;57.12;100868.84;4985505;28;20057;-61
2021/03/28 07:53:46;;;;;;;7.00;1.67;;;;;;;18.87;57.17;100871.31;5005144;28;20591;-61
2021/03/28 07:56:15;;;;;;;8.82;2.60;;;;;;;18.86;57.08;100889.09;5002006;28;20152;-61
2021/03/28 07:59:10;;;;;;;8.75;2.22;;;;;;;18.85;57.54;100892.78;5024515;28;20036;-62
2021/03/28 08:01:48;;;;;;;7.50;2.10;;;;;;;18.87;57.32;100893.41;5020811;28;20569;-60
2021/03/28 08:04:41;;;;;;;8.27;1.95;;;;;;;18.84;57.66;100875.19;5021243;28;20034;-62
2021/03/28 08:07:28;;;;;;;9.85;2.20;;;;;;;18.84;57.80;100883.16;5023667;28;20021;-62
2021/03/28 08:10:29;;;;;;;8.63;2.03;;;;;;;18.83;57.65;100889.47;5021525;28;20041;-61
2021/03/28 08:13:19;;;;;;;8.10;2.00;;;;;;;18.86;57.76;100897.06;5020834;28;20049;-61
2021/03/28 08:16:16;;;;;;;6.78;1.85;;;;;;;18.85;58.09;100892.78;5027566;28;20061;-64
2021/03/28 08:19:04;;;;;;;9.38;1.98;;;;;;;18.85;58.19;100880.31;5027535;28;20041;-65
2021/03/28 08:21:40;;;;;;;11.75;1.67;;;;;;;18.86;58.91;100897.06;5025752;28;20041;-63
2021/03/28 08:24:29;;;;;;;5.53;1.77;;;;;;;18.87;58.80;100888.09;5025956;28;20183;-62
2021/03/28 08:27:18;;;;;;;9.90;2.03;;;;;;;18.87;58.97;100904.03;5026184;28;20048;-63
2021/03/28 08:30:19;;;;;;;10.70;2.20;;;;;;;18.87;59.91;100904.03;5027087;28;20033;-62
2021/03/28 08:32:53;;;;;;;11.65;2.60;;;;;;;18.88;59.71;100897.69;5023868;28;20044;-62
2021/03/28 08:35:22;;;;;;;8.95;2.13;;;;;;;18.89;59.68;100896.69;5027651;28;20026;-62
2021/03/28 08:38:28;;;;;;;7.78;2.25;;;;;;;18.85;59.65;100898.91;5001654;28;20042;-62
2021/03/28 08:41:00;;;;;;;9.68;2.58;;;;;;;18.88;60.05;100905.69;4989899;28;20045;-62
2021/03/28 08:44:04;;;;;;;20.20;12.43;;;;;;;18.85;60.22;100906.88;5028941;28;20037;-62
2021/03/28 08:46:57;;;;;;;57.50;40.22;;;;;;;18.85;60.12;100916.69;5030404;28;20034;-62
2021/03/28 08:49:43;;;;;;;71.40;49.63;;;;;;;18.84;59.89;100915.03;5022152;28;20040;-61
2021/03/28 08:52:36;;;;;;;65.97;48.95;;;;;;;18.84;59.93;100907.06;5026286;28;20030;-61
2021/03/28 08:55:10;;;;;;;53.20;39.63;;;;;;;18.84;59.84;100920.38;5029613;28;20030;-62
2021/03/28 08:57:47;;;;;;;60.55;37.30;;;;;;;18.84;59.88;100925.69;5028397;28;20041;-62
2021/03/28 09:00:35;;;;;;;44.72;32.95;;;;;;;18.79;59.85;100928.91;5024007;28;20068;-61
2021/03/28 09:03:40;;;;;;;45.20;32.08;;;;;;;18.79;59.37;100926.25;5022079;28;20033;-61
2021/03/28 09:06:14;;;;;;;38.08;27.10;;;;;;;18.79;59.69;100930.75;5020106;28;20275;-62
2021/03/28 09:08:45;;;;;;;37.58;27.25;;;;;;;18.79;59.56;100931.56;4997936;28;20057;-63
2021/03/28 09:11:32;;;;;;;40.38;28.90;;;;;;;18.76;59.34;100941.72;5025891;28;20041;-61
2021/03/28 09:14:16;;;;;;;40.60;25.45;;;;;;;18.79;59.30;100944.03;5024008;28;20144;-63
2021/03/28 09:16:51;;;;;;;37.80;24.00;;;;;;;18.77;59.27;100930.09;5027192;28;20492;-60
2021/03/28 09:19:16;;;;;;;31.33;22.13;;;;;;;18.80;59.00;100943.03;5007925;28;20741;-64
2021/03/28 09:21:57;;;;;;;33.72;22.25;;;;;;;18.76;58.87;100944.38;5023909;28;20038;-63
2021/03/28 09:25:04;;;;;;;34.67;19.90;;;;;;;18.77;58.95;100930.09;5024926;28;20034;-62
2021/03/28 09:28:21;;;;;;;29.08;17.52;;;;;;;18.73;58.61;100937.63;4934888;28;20043;-62
2021/03/28 09:31:04;;;;;;;29.25;17.90;;;;;;;18.74;58.55;100938.44;4983671;28;20033;-62
2021/03/28 09:33:54;;;;;;;25.30;16.52;;;;;;;18.73;58.45;100931.47;5025228;28;20215;-62
2021/03/28 09:36:45;;;;;;;26.88;16.33;;;;;;;18.72;58.60;100948.44;5025938;28;20132;-61
2021/03/28 09:39:20;;;;;;;26.40;16.55;;;;;;;18.74;58.28;100947.22;5024893;28;20068;-62
2021/03/28 09:42:11;;;;;;;28.73;15.85;;;;;;;18.71;58.22;100934.31;5023410;28;20061;-63
2021/03/28 09:44:40;;;;;;;30.63;16.33;;;;;;;18.74;58.06;100941.09;5023999;28;20516;-63
2021/03/28 09:47:42;;;;;;;25.58;14.32;;;;;;;18.70;58.16;100945.97;5025692;28;20061;-61
2021/03/28 09:50:23;;;;;;;23.70;14.20;;;;;;;18.72;57.92;100961.72;5020402;28;20040;-63
2021/03/28 09:53:01;;;;;;;23.02;13.52;;;;;;;18.73;57.88;100969.50;5022379;28;20053;-66
2021/03/28 09:55:34;;;;;;;20.58;12.43;;;;;;;18.73;57.68;100976.66;5024036;28;20033;-62
2021/03/28 09:58:28;;;;;;;22.42;11.65;;;;;;;18.73;57.71;100971.34;5007579;28;20452;-64
2021/03/28 10:01:22;;;;;;;24.05;11.57;;;;;;;18.71;58.03;100989.31;5023737;28;20048;-62
2021/03/28 10:04:16;;;;;;;20.38;10.75;;;;;;;18.69;57.89;100970.06;4969332;28;20041;-62
2021/03/28 10:06:45;;;;;;;19.20;11.15;;;;;;;18.72;57.75;100982.97;4990932;28;20045;-62
2021/03/28 10:09:10;;;;;;;24.88;11.73;;;;;;;18.71;58.02;100971.53;5024077;28;20061;-64
2021/03/28 10:11:41;;;;;;;18.42;11.40;;;;;;;18.69;58.02;100978.88;5025022;28;20127;-67
2021/03/28 10:14:39;;;;;;;17.73;10.52;;;;;;;18.68;58.25;100974.56;5024081;28;20110;-65
2021/03/28 10:17:37;;;;;;;23.40;9.82;;;;;;;18.68;58.46;100973.75;5020608;28;20045;-62
2021/03/28 10:20:36;;;;;;;20.00;9.38;;;;;;;18.69;58.35;100988.69;5024785;28;20029;-65
2021/03/28 10:23:04;;;;;;;17.88;9.32;;;;;;;18.71;58.32;100968.06;5011900;28;20129;-62
2021/03/28 10:25:39;;;;;;;16.90;9.10;;;;;;;18.71;58.59;100976.03;5026561;28;20033;-64
2021/03/28 10:28:23;;;;;;;15.73;8.45;;;;;;;18.72;58.55;100975.00;5023628;28;20589;-66
2021/03/28 10:31:07;;;;;;;17.48;8.48;;;;;;;18.70;58.54;100983.16;5014755;28;20079;-63
2021/03/28 10:33:47;;;;;;;17.23;8.45;;;;;;;18.72;58.40;100975.00;5023107;28;20033;-62
2021/03/28 10:36:45;;;;;;;12.88;7.40;;;;;;;18.70;58.53;100969.06;5026339;28;20034;-63
2021/03/28 10:39:28;;;;;;;15.05;7.28;;;;;;;18.73;58.25;100995.25;5020042;28;20118;-63
2021/03/28 10:42:21;;;;;;;13.70;6.00;;;;;;;18.69;57.80;100980.69;5023163;28;20044;-62
2021/03/28 10:45:10;;;;;;;12.38;5.72;;;;;;;18.69;57.43;100996.66;4993511;28;20117;-62
2021/03/28 10:47:44;;;;;;;14.20;4.95;;;;;;;18.66;57.46;100989.06;5025618;28;20076;-62
2021/03/28 10:50:46;;;;;;;10.35;4.63;;;;;;;18.61;56.92;100989.56;5010076;28;20061;-62
2021/03/28 10:53:20;;;;;;;16.63;4.78;;;;;;;18.61;56.73;100989.56;4960148;28;20192;-62
2021/03/28 10:56:04;;;;;;;13.02;3.72;;;;;;;18.58;56.12;100989.13;5013068;28;20053;-62
2021/03/28 10:59:00;;;;;;;12.40;4.00;;;;;;;18.53;56.23;100984.38;5020345;28;20048;-63
2021/03/28 11:01:49;;;;;;;12.45;3.20;;;;;;;18.51;55.90;100986.38;5022800;28;20037;-62
2021/03/28 11:04:33;;;;;;;7.53;2.95;;;;;;;18.51;55.56;100995.19;5025205;28;20033;-62
2021/03/28 11:07:25;;;;;;;13.88;3.63;;;;;;;18.46;55.48;100964.84;5018871;28;20037;-62
2021/03/28 11:09:59;;;;;;;10.23;3.28;;;;;;;18.44;55.17;100959.72;5019097;28;20041;-63
2021/03/28 11:13:03;;;;;;;11.75;2.70;;;;;;;18.42;54.78;100974.19;5027735;28;20484;-62
2021/03/28 11:15:46;;;;;;;8.75;2.42;;;;;;;18.42;54.93;100969.72;5009743;28;20052;-62
2021/03/28 11:18:45;;;;;;;10.65;3.00;;;;;;;18.40;54.67;100968.25;5027003;28;20048;-62
2021/03/28 11:21:31;;;;;;;9.02;2.63;;;;;;;18.40;54.83;100981.53;5027374;28;20038;-62
2021/03/28 11:24:17;;;;;;;9.93;2.85;;;;;;;18.38;54.65;100964.97;5016940;28;20057;-62
2021/03/28 11:27:00;;;;;;;8.98;2.67;;;;;;;18.42;54.62;100953.78;5025424;28;20116;-62
2021/03/28 11:29:37;;;;;;;8.63;2.23;;;;;;;18.40;54.71;100945.16;5020801;28;20029;-62
2021/03/28 11:32:23;;;;;;;8.10;2.38;;;;;;;18.37;54.56;100942.88;4992552;28;20415;-62
2021/03/28 11:35:00;;;;;;;5.57;2.00;;;;;;;18.38;54.49;100962.31;5022231;28;20445;-62
2021/03/28 11:37:48;;;;;;;7.60;2.40;;;;;;;18.37;54.73;100952.69;4999095;28;20029;-62
2021/03/28 11:40:34;;;;;;;8.07;2.13;;;;;;;18.38;54.81;100978.25;5007702;28;20041;-62
2021/03/28 11:43:10;;;;;;;7.70;1.92;;;;;;;18.36;54.73;100943.91;5027897;28;20373;-62
2021/03/28 11:45:43;;;;;;;9.88;2.10;;;;;;;18.37;54.74;100969.44;5026569;28;20026;-61
2021/03/28 11:48:36;;;;;;;6.80;2.40;;;;;;;18.35;54.47;100954.72;5028590;28;20510;-62
2021/03/28 11:51:39;;;;;;;7.28;2.20;;;;;;;18.33;54.50;100946.94;5029660;28;20044;-62
2021/03/28 11:54:11;;;;;;;8.02;2.25;;;;;;;18.34;54.72;100937.97;5013166;28;20057;-62
2021/03/28 11:57:04;;;;;;;7.78;2.45;;;;;;;18.33;54.50;100928.34;5031415;28;20056;-62
2021/03/28 11:59:29;;;;;;;8.00;2.35;;;;;;;18.35;54.54;100917.53;5030174;28;20037;-64
2021/03/28 12:01:54;;;;;;;6.55;2.45;;;;;;;18.35;54.59;100921.00;5031494;28;20049;-62
2021/03/28 12:04:44;;;;;;;5.72;2.08;;;;;;;18.33;54.77;100917.72;5030228;28;20384;-63
2021/03/28 12:07:36;;;;;;;10.13;2.20;;;;;;;18.31;54.64;100925.06;4994769;28;20435;-62
2021/03/28 12:10:02;;;;;;;5.93;2.13;;;;;;;18.33;54.80;100911.59;5026617;28;20438;-62
2021/03/28 12:12:30;;;;;;;7.03;1.40;;;;;;;18.33;54.45;100911.59;5030549;28;20637;-62
2021/03/28 12:15:16;;;;;;;5.60;1.60;;;;;;;18.33;54.56;100922.22;5029620;28;20040;-64
2021/03/28 12:17:42;;;;;;;5.35;1.23;;;;;;;18.31;54.71;100919.75;5012296;28;20033;-62
2021/03/28 12:20:17;;;;;;;4.70;1.35;;;;;;;18.30;54.48;100912.75;5010285;28;20087;-61
2021/03/28 12:22:43;;;;;;;7.03;0.98;;;;;;;18.31;54.89;100905.66;5030043;28;20029;-64
2021/03/28 12:25:14;;;;;;;7.25;1.60;;;;;;;18.30;54.70;100912.75;5034887;28;20089;-62
2021/03/28 12:27:59;;;;;;;9.20;1.58;;;;;;;18.28;55.16;100901.50;5035116;28;20076;-62
2021/03/28 12:30:28;;;;;;;9.48;1.73;;;;;;;18.31;55.51;100903.00;5031219;28;20037;-64
2021/03/28 12:32:53;;;;;;;14.25;1.80;;;;;;;18.34;55.98;100899.97;5031679;28;20026;-63
2021/03/28 12:35:24;;;;;;;9.88;2.00;;;;;;;18.34;56.46;100905.25;5011308;28;20036;-63
2021/03/28 12:37:51;;;;;;;11.80;1.52;;;;;;;18.37;56.87;100894.25;5005363;28;20052;-62
2021/03/28 12:40:25;;;;;;;9.00;1.80;;;;;;;18.37;57.35;100876.50;5028736;28;20610;-62
2021/03/28 12:42:52;;;;;;;9.40;1.50;;;;;;;18.40;57.73;100881.44;5026772;28;20488;-62